Time;durP1;ratioP1;P1;durP2;ratioP2;P2;SDS_P1;SDS_P2;PMS_P1;PMS_P2;Temp;Humidity;BMP_temperature;BMP_pressure;BME280_temperature;BME280_humidity;BME280_pressure;Samples;Min_cycle;Max_cycle;Signal;HPM_P1;HPM_P2
2022/10/10 00:00:07;;;;;;;6.37;4.87;;;17.00;58.30;;;;;;5117486;27;20204;-49
2022/10/10 00:02:32;;;;;;;7.17;4.97;;;17.00;58.30;;;;;;5124026;27;20194;-49
2022/10/10 00:04:58;;;;;;;8.20;4.67;;;17.00;58.30;;;;;;5117022;27;20431;-49
2022/10/10 00:07:23;;;;;;;4.33;3.97;;;17.00;58.20;;;;;;5117289;27;20673;-49
2022/10/10 00:09:49;;;;;;;4.80;4.10;;;16.90;58.60;;;;;;5122231;27;20198;-49
2022/10/10 00:12:15;;;;;;;6.27;5.00;;;16.80;58.90;;;;;;5104104;27;20194;-50
2022/10/10 00:14:40;;;;;;;6.17;4.40;;;16.80;58.90;;;;;;5126861;27;20185;-48
2022/10/10 00:17:06;;;;;;;6.50;4.00;;;16.80;59.20;;;;;;5122624;27;20281;-50
2022/10/10 00:19:31;;;;;;;6.23;4.73;;;16.90;58.90;;;;;;5124989;27;20190;-50
2022/10/10 00:21:57;;;;;;;9.40;4.80;;;16.90;58.90;;;;;;5129155;27;20197;-51
2022/10/10 00:24:22;;;;;;;6.37;4.27;;;16.90;58.90;;;;;;5119899;27;20261;-49
2022/10/10 00:26:48;;;;;;;5.10;4.60;;;16.90;59.20;;;;;;5120525;27;20234;-49
2022/10/10 00:29:13;;;;;;;4.80;4.40;;;16.80;59.30;;;;;;5121089;27;20222;-49
2022/10/10 00:31:39;;;;;;;5.17;4.57;;;16.90;59.30;;;;;;5128359;27;20194;-49
2022/10/10 00:34:04;;;;;;;6.97;5.33;;;16.90;59.30;;;;;;5121335;27;20618;-49
2022/10/10 00:36:30;;;;;;;6.50;5.33;;;17.00;59.20;;;;;;5120012;27;20186;-48
2022/10/10 00:38:56;;;;;;;7.17;5.63;;;17.10;59.00;;;;;;5121099;27;20550;-49
2022/10/10 00:41:22;;;;;;;6.10;4.97;;;17.00;59.20;;;;;;5120730;27;20282;-49
2022/10/10 00:44:10;;;;;;;6.53;4.37;;;17.00;59.20;;;;;;5122537;27;20206;-49
2022/10/10 00:46:36;;;;;;;6.17;4.97;;;16.90;59.50;;;;;;5114375;27;20541;-52
2022/10/10 00:49:06;;;;;;;6.87;4.83;;;16.90;59.60;;;;;;5129001;27;20435;-50
2022/10/10 00:51:32;;;;;;;8.20;4.30;;;17.00;59.40;;;;;;5122749;27;20447;-49
2022/10/10 00:54:02;;;;;;;5.50;5.00;;;16.90;59.10;;;;;;5116324;27;20470;-49
2022/10/10 00:56:32;;;;;;;4.90;4.40;;;16.90;59.40;;;;;;5115652;27;20488;-49
2022/10/10 00:59:02;;;;;;;6.23;4.60;;;16.90;59.60;;;;;;5124089;27;20463;-50
2022/10/10 01:01:28;;;;;;;5.10;4.60;;;16.90;59.50;;;;;;5112612;27;20439;-49
2022/10/10 01:03:58;;;;;;;7.80;5.50;;;16.80;59.90;;;;;;5118637;27;20790;-49
2022/10/10 01:06:24;;;;;;;4.97;4.47;;;16.80;60.20;;;;;;5126845;27;20222;-53
2022/10/10 01:08:49;;;;;;;7.07;4.87;;;16.80;60.10;;;;;;5119635;27;20485;-53
2022/10/10 01:11:29;;;;;;;5.83;4.77;;;16.90;60.20;;;;;;5115785;27;20200;-52
2022/10/10 01:14:07;;;;;;;5.27;4.60;;;16.80;60.10;;;;;;5121979;27;20229;-53
2022/10/10 01:16:47;;;;;;;4.73;4.20;;;16.50;60.90;;;;;;5116772;27;20446;-54
2022/10/10 01:19:43;;;;;;;6.83;4.70;;;16.40;62.00;;;;;;5116379;27;20443;-53
2022/10/10 01:22:11;;;;;;;6.07;4.80;;;16.20;61.80;;;;;;5112464;27;20477;-54
2022/10/10 01:24:46;;;;;;;5.37;4.80;;;16.10;62.50;;;;;;5120340;27;20476;-53
2022/10/10 01:27:14;;;;;;;6.20;5.53;;;16.00;63.20;;;;;;5116555;27;20804;-53
2022/10/10 01:30:06;;;;;;;5.87;5.00;;;16.00;63.60;;;;;;5117986;27;20499;-54
2022/10/10 01:32:38;;;;;;;5.13;4.67;;;16.00;62.60;;;;;;5125194;27;20455;-53
2022/10/10 01:35:17;;;;;;;5.23;4.67;;;16.00;62.90;;;;;;5118363;27;20462;-51
2022/10/10 01:37:53;;;;;;;5.80;5.20;;;15.90;63.00;;;;;;5119190;27;20448;-51
2022/10/10 01:41:03;;;;;;;7.17;5.60;;;15.60;64.40;;;;;;5124357;28;20732;-49
2022/10/10 01:43:29;;;;;;;10.57;5.27;;;15.60;64.60;;;;;;5018082;28;20521;-50
2022/10/10 01:45:55;;;;;;;7.07;5.90;;;15.50;65.30;;;;;;5008390;28;22459;-50
2022/10/10 01:48:28;;;;;;;8.37;5.77;;;15.60;65.00;;;;;;5067092;28;21061;-51
2022/10/10 01:51:09;;;;;;;6.13;5.53;;;15.60;65.20;;;;;;5118731;28;21064;-51
2022/10/10 01:54:09;;;;;;;10.80;4.97;;;15.60;65.10;;;;;;5119599;28;20556;-49
2022/10/10 01:56:46;;;;;;;6.10;4.77;;;15.30;66.00;;;;;;5082857;28;20455;-53
2022/10/10 01:59:40;;;;;;;8.60;5.83;;;15.30;66.10;;;;;;5119387;28;20454;-53
2022/10/10 02:02:12;;;;;;;12.27;6.37;;;15.30;66.20;;;;;;5115769;28;20440;-50
2022/10/10 02:04:50;;;;;;;10.27;5.50;;;15.40;66.10;;;;;;5124086;28;20423;-50
2022/10/10 02:07:48;;;;;;;5.60;5.10;;;15.40;66.20;;;;;;5130411;28;20481;-50
2022/10/10 02:10:18;;;;;;;7.10;5.73;;;15.60;65.40;;;;;;5113209;28;20452;-52
2022/10/10 02:12:46;;;;;;;8.27;5.70;;;15.80;64.40;;;;;;5116338;28;20583;-49
2022/10/10 02:15:15;;;;;;;7.10;5.40;;;15.80;64.00;;;;;;5121558;28;20450;-53
2022/10/10 02:17:44;;;;;;;6.43;5.17;;;15.70;64.30;;;;;;5127860;27;20458;-51
2022/10/10 02:20:12;;;;;;;5.47;5.07;;;15.80;64.30;;;;;;5130248;27;20446;-51
2022/10/10 02:22:43;;;;;;;6.13;5.30;;;15.80;64.30;;;;;;5123413;27;20439;-51
2022/10/10 02:25:11;;;;;;;8.70;6.00;;;15.70;64.50;;;;;;5128219;27;20482;-49
2022/10/10 02:27:48;;;;;;;6.67;5.10;;;15.50;65.40;;;;;;5121443;27;20451;-50
2022/10/10 02:30:16;;;;;;;8.63;5.63;;;15.50;65.40;;;;;;5117148;27;20459;-52
2022/10/10 02:32:58;;;;;;;9.60;6.20;;;15.50;65.40;;;;;;5123993;27;20446;-49
2022/10/10 02:35:29;;;;;;;6.17;5.57;;;15.50;65.20;;;;;;5124420;27;20444;-50
2022/10/10 02:37:55;;;;;;;6.03;4.60;;;15.50;65.30;;;;;;5121543;27;20436;-49
2022/10/10 02:40:24;;;;;;;6.37;5.23;;;15.60;65.00;;;;;;5123940;27;20481;-51
2022/10/10 02:42:51;;;;;;;8.60;5.33;;;15.70;64.40;;;;;;5116698;27;22456;-49
2022/10/10 02:45:19;;;;;;;10.73;5.30;;;15.70;64.50;;;;;;5121445;27;20577;-50
2022/10/10 02:47:45;;;;;;;5.30;4.70;;;15.70;64.20;;;;;;5123099;27;20439;-49
2022/10/10 02:50:11;;;;;;;6.30;5.43;;;15.70;64.30;;;;;;5119755;27;20439;-49
2022/10/10 02:52:36;;;;;;;8.73;6.83;;;15.60;64.60;;;;;;5123141;27;20301;-49
2022/10/10 02:55:02;;;;;;;6.73;5.60;;;15.70;64.40;;;;;;5122789;27;20232;-49
2022/10/10 02:57:28;;;;;;;5.53;5.03;;;15.60;64.70;;;;;;5124276;27;20197;-53
2022/10/10 02:59:54;;;;;;;8.13;6.10;;;15.60;64.80;;;;;;5123359;27;20439;-49
2022/10/10 03:02:19;;;;;;;5.93;5.17;;;15.60;65.00;;;;;;5122882;27;20566;-48
2022/10/10 03:04:45;;;;;;;6.50;5.90;;;15.60;65.10;;;;;;5126620;27;20189;-52
2022/10/10 03:07:11;;;;;;;8.83;5.80;;;15.60;64.90;;;;;;5121915;27;20258;-49
2022/10/10 03:09:36;;;;;;;11.03;5.53;;;15.70;64.80;;;;;;5119145;27;20287;-49
2022/10/10 03:12:02;;;;;;;6.70;5.83;;;15.60;65.10;;;;;;5121278;27;20649;-54
2022/10/10 03:14:28;;;;;;;9.10;5.80;;;15.80;64.60;;;;;;5124466;27;20288;-50
2022/10/10 03:16:54;;;;;;;7.70;6.03;;;15.90;64.20;;;;;;5124701;27;20519;-49
2022/10/10 03:19:19;;;;;;;5.40;4.90;;;15.90;64.00;;;;;;5124148;27;20258;-51
2022/10/10 03:21:45;;;;;;;8.13;5.77;;;15.80;64.10;;;;;;5121602;27;20230;-50
2022/10/10 03:24:10;;;;;;;5.40;4.90;;;15.90;64.10;;;;;;5129425;27;20233;-50
2022/10/10 03:26:36;;;;;;;5.67;5.17;;;15.80;64.00;;;;;;5121614;27;20219;-52
2022/10/10 03:29:03;;;;;;;7.50;5.60;;;15.80;64.30;;;;;;5125766;27;20221;-51
2022/10/10 03:31:28;;;;;;;7.20;5.60;;;16.00;63.80;;;;;;5119377;27;20194;-49
2022/10/10 03:33:54;;;;;;;6.03;5.27;;;16.00;63.80;;;;;;5119749;27;20432;-50
2022/10/10 03:36:21;;;;;;;6.87;5.00;;;16.00;63.80;;;;;;5125860;27;20234;-49
2022/10/10 03:38:47;;;;;;;13.20;6.23;;;15.80;64.40;;;;;;5125606;27;20206;-49
2022/10/10 03:41:13;;;;;;;5.67;5.07;;;15.90;64.20;;;;;;5121763;27;20767;-50
2022/10/10 03:43:38;;;;;;;8.07;5.73;;;15.90;64.10;;;;;;5124628;27;20546;-49
2022/10/10 03:46:04;;;;;;;5.80;5.30;;;16.00;63.80;;;;;;5124084;27;20241;-49
2022/10/10 03:48:29;;;;;;;8.77;6.07;;;15.90;64.30;;;;;;5123488;27;20877;-50
2022/10/10 03:50:55;;;;;;;7.90;6.23;;;15.90;64.20;;;;;;5116821;27;20186;-50
2022/10/10 03:53:21;;;;;;;8.90;6.70;;;15.90;64.30;;;;;;5118455;27;20190;-51
2022/10/10 03:55:47;;;;;;;7.23;6.53;;;16.00;64.00;;;;;;5121701;27;20186;-50
2022/10/10 03:58:12;;;;;;;9.33;5.90;;;16.10;63.50;;;;;;5120358;27;20505;-50
2022/10/10 04:00:38;;;;;;;7.20;5.80;;;16.10;63.40;;;;;;5120744;27;20187;-50
2022/10/10 04:03:05;;;;;;;10.63;6.57;;;16.20;63.20;;;;;;5120166;27;20642;-51
2022/10/10 04:05:35;;;;;;;10.93;6.20;;;16.10;62.90;;;;;;5114838;27;20484;-49
2022/10/10 04:08:02;;;;;;;8.40;7.30;;;16.10;63.30;;;;;;5112916;27;20439;-51
2022/10/10 04:10:27;;;;;;;6.60;5.90;;;16.20;63.20;;;;;;5123592;27;20456;-49
2022/10/10 04:12:54;;;;;;;8.40;6.03;;;16.00;63.40;;;;;;5120817;27;20432;-53
2022/10/10 04:15:19;;;;;;;8.23;5.90;;;15.90;64.10;;;;;;5123361;27;20281;-52
2022/10/10 04:17:45;;;;;;;7.17;5.60;;;15.90;64.10;;;;;;5119689;27;20797;-53
2022/10/10 04:20:10;;;;;;;7.10;6.27;;;15.90;64.50;;;;;;5129005;27;20235;-54
2022/10/10 04:22:36;;;;;;;7.67;6.23;;;15.80;64.60;;;;;;5124306;27;20207;-53
2022/10/10 04:25:02;;;;;;;9.30;7.50;;;16.00;64.30;;;;;;5126940;27;20978;-52
2022/10/10 04:27:28;;;;;;;14.40;7.03;;;15.60;65.00;;;;;;5126110;27;20649;-53
2022/10/10 04:29:53;;;;;;;9.70;6.20;;;15.50;65.70;;;;;;5116861;27;20187;-53
2022/10/10 04:32:19;;;;;;;8.43;7.30;;;15.40;66.10;;;;;;5121515;27;20304;-54
2022/10/10 04:34:44;;;;;;;8.37;7.07;;;15.20;67.00;;;;;;5125337;27;20557;-53
2022/10/10 04:37:10;;;;;;;9.30;6.97;;;15.30;67.70;;;;;;5122614;27;20318;-53
2022/10/10 04:39:35;;;;;;;6.43;5.20;;;15.30;66.80;;;;;;5122398;27;20186;-53
2022/10/10 04:42:01;;;;;;;6.70;5.97;;;15.40;66.90;;;;;;5125256;27;20197;-53
2022/10/10 04:44:27;;;;;;;6.70;5.70;;;15.60;66.40;;;;;;5116023;27;20561;-54
2022/10/10 04:46:52;;;;;;;6.80;5.50;;;15.60;66.10;;;;;;5120738;27;20226;-49
2022/10/10 04:49:18;;;;;;;7.40;6.70;;;15.70;65.60;;;;;;5116416;27;20225;-53
2022/10/10 04:51:43;;;;;;;13.33;7.53;;;15.80;65.40;;;;;;5125735;27;20190;-50
2022/10/10 04:54:09;;;;;;;9.27;6.47;;;15.90;65.30;;;;;;5122354;27;20190;-54
2022/10/10 04:56:34;;;;;;;5.90;5.40;;;15.80;65.20;;;;;;5121000;27;20194;-52
2022/10/10 04:59:00;;;;;;;6.33;5.70;;;15.70;65.40;;;;;;5122733;27;20197;-50
2022/10/10 05:01:26;;;;;;;6.80;6.10;;;15.70;64.80;;;;;;5124401;27;20637;-50
2022/10/10 05:03:52;;;;;;;8.90;6.60;;;15.80;64.70;;;;;;5121918;27;20185;-53
2022/10/10 05:06:18;;;;;;;8.30;7.10;;;15.90;64.60;;;;;;5120325;27;20660;-50
2022/10/10 05:08:43;;;;;;;7.57;6.13;;;16.00;64.10;;;;;;5114851;27;20460;-53
2022/10/10 05:11:09;;;;;;;7.37;6.50;;;16.10;63.70;;;;;;5122401;27;20272;-50
2022/10/10 05:13:35;;;;;;;7.13;5.63;;;16.00;63.60;;;;;;5116528;27;20200;-54
2022/10/10 05:16:00;;;;;;;9.17;5.67;;;16.00;63.90;;;;;;5121270;27;20221;-52
2022/10/10 05:18:26;;;;;;;6.20;5.70;;;16.20;64.70;;;;;;5123550;27;20186;-49
2022/10/10 05:20:51;;;;;;;6.87;5.83;;;16.30;64.60;;;;;;5122170;27;20205;-53
2022/10/10 05:23:17;;;;;;;10.60;6.10;;;16.50;64.30;;;;;;5125426;27;20225;-49
2022/10/10 05:25:47;;;;;;;6.90;5.70;;;16.50;63.40;;;;;;5128861;27;20290;-53
2022/10/10 05:28:13;;;;;;;6.20;5.60;;;16.50;62.90;;;;;;5125573;27;20190;-53
2022/10/10 05:30:38;;;;;;;6.80;5.67;;;16.60;62.70;;;;;;5118255;27;20436;-48
2022/10/10 05:33:04;;;;;;;8.20;5.77;;;16.70;62.50;;;;;;5114637;27;20200;-53
2022/10/10 05:35:29;;;;;;;6.33;5.33;;;16.60;62.00;;;;;;5113836;27;20656;-50
2022/10/10 05:37:55;;;;;;;6.37;5.60;;;16.50;62.70;;;;;;5101560;27;20193;-53
2022/10/10 05:40:22;;;;;;;5.60;5.00;;;16.60;62.40;;;;;;5119124;27;20193;-53
2022/10/10 05:42:48;;;;;;;9.60;6.63;;;16.70;61.70;;;;;;5115649;27;20613;-49
2022/10/10 05:45:13;;;;;;;10.17;5.50;;;16.80;61.20;;;;;;5119122;28;20499;-49
2022/10/10 05:47:39;;;;;;;6.50;5.80;;;16.90;60.80;;;;;;5125369;28;20190;-49
2022/10/10 05:50:06;;;;;;;6.53;5.87;;;16.90;60.70;;;;;;5121013;28;20187;-53
2022/10/10 05:52:34;;;;;;;5.70;4.97;;;16.70;60.50;;;;;;5120665;28;20186;-49
2022/10/10 05:54:59;;;;;;;6.87;5.63;;;16.60;61.30;;;;;;5115542;27;20519;-49
2022/10/10 05:57:25;;;;;;;6.87;5.30;;;16.60;61.50;;;;;;5123123;27;20523;-50
2022/10/10 05:59:50;;;;;;;6.63;5.80;;;16.50;60.80;;;;;;5127113;27;20546;-50
2022/10/10 06:02:16;;;;;;;6.20;5.57;;;16.50;61.90;;;;;;5118616;27;20190;-49
2022/10/10 06:04:41;;;;;;;6.60;5.43;;;16.50;61.80;;;;;;5120597;27;20219;-49
2022/10/10 06:07:08;;;;;;;10.80;6.57;;;16.50;61.50;;;;;;5135473;27;21642;-49
2022/10/10 06:09:34;;;;;;;6.10;5.50;;;16.70;61.40;;;;;;5127372;27;20198;-49
2022/10/10 06:11:59;;;;;;;6.17;5.57;;;16.50;61.50;;;;;;5116465;27;20985;-49
2022/10/10 06:14:25;;;;;;;7.23;5.67;;;16.50;61.60;;;;;;5127063;27;20196;-49
2022/10/10 06:20:13;;;;;;;7.30;6.60;;;16.30;62.70;;;;;;5171364;22;20266;-47
2022/10/10 06:22:38;;;;;;;11.90;6.10;;;16.50;62.20;;;;;;5044514;28;20451;-49
2022/10/10 06:25:04;;;;;;;7.60;5.40;;;16.60;61.80;;;;;;5048844;28;20196;-50
2022/10/10 06:27:29;;;;;;;6.13;5.20;;;16.70;61.90;;;;;;5046624;28;20188;-48
2022/10/10 06:29:55;;;;;;;10.10;6.77;;;16.80;61.90;;;;;;5050352;28;20197;-50
2022/10/10 06:32:20;;;;;;;8.40;5.57;;;16.90;61.70;;;;;;5052454;28;20202;-49
2022/10/10 06:34:46;;;;;;;8.87;6.30;;;16.90;61.40;;;;;;5052961;28;20188;-47
2022/10/10 06:37:12;;;;;;;8.17;5.40;;;17.00;61.10;;;;;;5052749;28;20185;-47
2022/10/10 06:39:37;;;;;;;5.97;5.37;;;17.00;61.20;;;;;;5050049;28;20276;-47
2022/10/10 06:42:03;;;;;;;9.03;6.40;;;17.00;61.20;;;;;;5051509;28;20203;-50
2022/10/10 06:44:29;;;;;;;6.33;5.57;;;17.00;61.40;;;;;;5051469;28;20197;-49
2022/10/10 06:46:54;;;;;;;7.00;5.33;;;17.20;61.30;;;;;;5052652;28;20307;-47
2022/10/10 06:49:20;;;;;;;9.60;5.20;;;17.20;60.90;;;;;;5051622;28;20203;-51
2022/10/10 06:51:46;;;;;;;11.20;5.47;;;17.30;60.80;;;;;;5049007;28;20266;-50
2022/10/10 06:54:12;;;;;;;6.20;5.50;;;17.40;60.50;;;;;;5052441;28;20442;-48
2022/10/10 06:56:37;;;;;;;7.63;5.07;;;17.50;60.10;;;;;;5051407;28;20435;-48
2022/10/10 06:59:03;;;;;;;5.93;5.40;;;17.60;60.20;;;;;;5053142;28;20235;-49
2022/10/10 07:01:29;;;;;;;5.93;5.00;;;17.50;60.30;;;;;;5051231;28;20287;-49
2022/10/10 07:03:54;;;;;;;5.73;5.13;;;17.60;60.20;;;;;;5054268;28;20196;-48
2022/10/10 07:06:20;;;;;;;5.97;5.47;;;17.60;60.20;;;;;;5045765;28;20240;-49
2022/10/10 07:08:46;;;;;;;5.80;5.30;;;17.60;60.20;;;;;;5052888;28;20219;-52
2022/10/10 07:11:12;;;;;;;9.00;5.27;;;17.80;60.00;;;;;;5051487;28;20439;-48
2022/10/10 07:13:38;;;;;;;5.93;5.40;;;17.90;59.70;;;;;;5053731;28;20196;-48
2022/10/10 07:16:04;;;;;;;7.27;5.60;;;18.00;59.60;;;;;;5050120;28;20228;-48
2022/10/10 07:18:30;;;;;;;6.10;5.50;;;17.80;60.00;;;;;;5052150;28;20200;-51
2022/10/10 07:20:58;;;;;;;5.40;4.90;;;18.00;60.10;;;;;;5054665;28;20518;-47
2022/10/10 07:23:24;;;;;;;8.23;6.10;;;18.10;59.60;;;;;;5048733;28;20478;-47
2022/10/10 07:25:50;;;;;;;7.20;5.97;;;18.30;59.20;;;;;;5052229;28;20553;-47
2022/10/10 07:28:16;;;;;;;5.80;5.20;;;18.30;59.10;;;;;;5052392;28;20541;-48
2022/10/10 07:30:43;;;;;;;7.63;5.37;;;18.40;58.90;;;;;;5050778;28;20670;-47
2022/10/10 07:33:10;;;;;;;6.93;5.33;;;18.60;58.40;;;;;;5049017;28;20658;-47
2022/10/10 07:35:36;;;;;;;6.53;5.63;;;18.60;58.50;;;;;;5051152;28;20458;-47
2022/10/10 07:38:01;;;;;;;12.13;6.80;;;18.60;58.30;;;;;;5044231;28;20455;-48
2022/10/10 07:40:27;;;;;;;6.07;5.40;;;18.60;59.00;;;;;;5044554;28;20299;-47
2022/10/10 07:42:53;;;;;;;6.90;6.20;;;18.50;58.90;;;;;;5050266;28;20204;-47
2022/10/10 07:45:18;;;;;;;7.70;5.70;;;18.50;59.10;;;;;;5047545;28;20216;-49
2022/10/10 07:47:44;;;;;;;6.17;5.10;;;18.70;58.90;;;;;;5044560;28;20652;-47
2022/10/10 07:50:10;;;;;;;6.23;5.63;;;18.80;58.90;;;;;;5045193;28;20204;-47
2022/10/10 07:52:36;;;;;;;6.50;4.97;;;18.90;58.70;;;;;;5046344;28;20189;-49
2022/10/10 07:55:03;;;;;;;5.33;4.83;;;18.80;58.70;;;;;;5046851;28;20459;-47
2022/10/10 07:57:33;;;;;;;8.47;7.20;;;18.80;59.10;;;;;;5044771;28;20443;-48
2022/10/10 08:00:06;;;;;;;6.00;5.30;;;18.90;59.10;;;;;;5049059;28;20458;-48
2022/10/10 08:02:32;;;;;;;4.77;4.37;;;19.00;58.80;;;;;;5048457;28;20941;-47
2022/10/10 08:04:57;;;;;;;20.83;6.43;;;18.90;58.70;;;;;;5049434;28;20493;-49
2022/10/10 08:07:23;;;;;;;5.27;4.83;;;18.70;59.50;;;;;;5049038;28;20228;-48
2022/10/10 08:09:49;;;;;;;6.90;4.70;;;18.90;59.50;;;;;;5047184;28;20197;-49
2022/10/10 08:12:14;;;;;;;7.37;5.40;;;18.80;59.60;;;;;;5044542;28;20204;-49
2022/10/10 08:14:40;;;;;;;6.43;5.60;;;19.00;59.30;;;;;;5050139;28;20790;-46
2022/10/10 08:17:06;;;;;;;5.80;4.80;;;19.20;58.90;;;;;;5047344;28;20772;-48
2022/10/10 08:19:31;;;;;;;10.00;5.13;;;19.20;59.30;;;;;;5046664;28;20237;-48
2022/10/10 08:21:57;;;;;;;9.43;4.80;;;19.30;59.10;;;;;;5041591;28;20189;-48
2022/10/10 08:24:22;;;;;;;6.33;4.93;;;19.30;59.20;;;;;;5047582;28;20280;-48
2022/10/10 08:26:49;;;;;;;8.33;5.50;;;19.50;59.00;;;;;;5047841;28;20220;-49
2022/10/10 08:29:15;;;;;;;5.73;5.20;;;19.60;58.70;;;;;;5038647;28;21702;-47
2022/10/10 08:31:41;;;;;;;7.33;5.87;;;19.80;58.40;;;;;;5049773;28;20442;-46
2022/10/10 08:34:08;;;;;;;5.23;4.70;;;19.80;58.40;;;;;;5048965;28;20449;-48
2022/10/10 08:36:34;;;;;;;6.90;6.20;;;19.90;58.10;;;;;;5051618;28;20643;-48
2022/10/10 08:39:00;;;;;;;10.40;5.63;;;19.90;58.20;;;;;;5047629;28;20431;-50
2022/10/10 08:41:41;;;;;;;5.60;5.03;;;20.00;58.10;;;;;;5050828;28;20484;-48
2022/10/10 08:44:22;;;;;;;10.20;6.20;;;20.00;57.70;;;;;;5045352;28;20503;-49
2022/10/10 08:46:52;;;;;;;9.27;4.90;;;20.10;57.60;;;;;;5042858;28;20993;-49
2022/10/10 08:49:42;;;;;;;8.00;6.20;;;19.90;58.00;;;;;;5039231;28;20448;-51
2022/10/10 08:52:19;;;;;;;8.27;6.30;;;19.70;59.50;;;;;;5040261;28;20529;-48
2022/10/10 08:54:47;;;;;;;10.93;5.53;;;19.80;59.50;;;;;;5046909;28;20443;-47
2022/10/10 08:57:32;;;;;;;6.77;5.10;;;19.80;59.20;;;;;;5047120;28;20447;-47
2022/10/10 09:00:11;;;;;;;6.43;5.13;;;19.90;59.40;;;;;;5041524;28;20493;-47
2022/10/10 09:02:51;;;;;;;7.27;5.40;;;20.00;59.70;;;;;;5047171;28;20446;-47
2022/10/10 09:05:25;;;;;;;5.37;4.83;;;20.20;58.80;;;;;;5049471;28;20466;-47
2022/10/10 09:08:18;;;;;;;5.33;4.83;;;20.40;58.40;;;;;;5047408;28;20491;-48
2022/10/10 09:10:55;;;;;;;7.93;5.40;;;20.60;59.00;;;;;;5047258;28;20550;-48
2022/10/10 09:13:33;;;;;;;5.03;4.10;;;20.90;59.20;;;;;;5051373;28;20458;-51
2022/10/10 09:16:06;;;;;;;7.00;4.40;;;21.10;58.10;;;;;;5044640;28;20451;-48
2022/10/10 09:19:08;;;;;;;6.70;4.60;;;21.10;57.30;;;;;;5048070;28;20459;-49
2022/10/10 09:21:36;;;;;;;5.80;5.30;;;21.20;57.30;;;;;;5040078;28;20516;-48
2022/10/10 09:24:10;;;;;;;7.90;4.00;;;21.20;57.10;;;;;;5046374;28;20447;-47
2022/10/10 09:26:42;;;;;;;7.80;4.40;;;21.20;56.90;;;;;;5045692;28;20487;-48
2022/10/10 09:29:23;;;;;;;7.37;4.30;;;21.20;57.10;;;;;;5050591;28;20481;-48
2022/10/10 09:31:55;;;;;;;10.43;4.50;;;21.40;56.70;;;;;;5050128;28;20447;-47
2022/10/10 09:34:36;;;;;;;6.77;4.80;;;21.60;56.40;;;;;;5049620;28;20439;-49
2022/10/10 09:37:02;;;;;;;5.40;4.90;;;21.80;56.20;;;;;;5048825;28;20455;-47
2022/10/10 09:39:42;;;;;;;9.27;4.80;;;22.00;55.80;;;;;;5048252;28;20455;-48
2022/10/10 09:42:11;;;;;;;5.63;4.53;;;21.90;55.80;;;;;;5048708;28;20454;-47
2022/10/10 09:44:39;;;;;;;5.97;4.50;;;22.10;55.60;;;;;;5049433;28;20450;-47
2022/10/10 09:47:04;;;;;;;8.33;5.50;;;22.10;55.70;;;;;;5042254;28;20483;-48
2022/10/10 09:49:30;;;;;;;5.50;4.70;;;22.30;56.30;;;;;;5045981;28;20449;-47
2022/10/10 09:51:56;;;;;;;5.40;4.90;;;22.30;55.40;;;;;;5043271;28;20332;-49
2022/10/10 09:54:23;;;;;;;4.50;4.10;;;22.30;55.90;;;;;;5048017;28;20196;-47
2022/10/10 09:56:53;;;;;;;8.73;4.07;;;22.50;55.60;;;;;;5047378;28;20529;-47
2022/10/10 09:59:54;;;;;;;5.57;3.90;;;22.80;55.20;;;;;;5049113;28;20593;-47
2022/10/10 10:02:23;;;;;;;9.00;4.23;;;23.20;54.80;;;;;;4993473;28;21056;-47
2022/10/10 10:04:51;;;;;;;8.80;3.77;;;23.20;54.00;;;;;;5036829;28;20873;-47
2022/10/10 10:07:24;;;;;;;5.50;3.70;;;23.40;54.50;;;;;;5043245;28;20490;-47
2022/10/10 10:09:53;;;;;;;4.57;3.47;;;23.60;54.00;;;;;;5050088;28;20472;-47
2022/10/10 10:12:39;;;;;;;4.00;3.53;;;23.90;53.20;;;;;;5047148;28;20530;-48
2022/10/10 10:15:16;;;;;;;5.33;3.60;;;24.30;52.90;;;;;;5048510;28;20465;-48
2022/10/10 10:17:42;;;;;;;3.70;2.90;;;24.40;51.90;;;;;;5041261;28;21185;-48
2022/10/10 10:20:33;;;;;;;5.80;3.17;;;24.40;52.30;;;;;;5045244;28;20474;-47
2022/10/10 10:22:58;;;;;;;5.70;3.10;;;24.70;52.60;;;;;;5047339;28;20284;-48
2022/10/10 10:25:34;;;;;;;4.03;3.63;;;24.50;52.60;;;;;;5047581;28;20570;-48
2022/10/10 10:28:17;;;;;;;4.10;3.70;;;24.30;52.20;;;;;;5048184;28;20192;-47
2022/10/10 10:30:43;;;;;;;9.67;3.50;;;24.40;52.30;;;;;;5047198;28;20853;-47
2022/10/10 10:33:43;;;;;;;5.80;3.90;;;24.50;52.30;;;;;;5046230;28;20534;-48
2022/10/10 10:36:30;;;;;;;3.73;3.33;;;24.90;52.20;;;;;;5048378;28;20458;-48
2022/10/10 10:39:08;;;;;;;3.23;2.93;;;25.00;51.50;;;;;;5048076;28;20447;-48
2022/10/10 10:41:46;;;;;;;4.20;3.37;;;25.20;51.60;;;;;;5049561;28;20431;-47
2022/10/10 10:44:31;;;;;;;4.20;3.20;;;25.00;51.00;;;;;;5052254;28;20459;-48
2022/10/10 10:47:02;;;;;;;4.17;3.40;;;25.20;51.00;;;;;;5049961;28;20522;-48
2022/10/10 10:49:37;;;;;;;4.87;3.20;;;25.60;50.30;;;;;;5050215;28;20885;-48
2022/10/10 10:52:16;;;;;;;4.87;3.77;;;25.90;49.40;;;;;;5052004;28;20434;-48
2022/10/10 10:55:00;;;;;;;5.60;2.40;;;25.90;49.00;;;;;;5052940;28;20448;-48
2022/10/10 10:58:00;;;;;;;11.50;2.60;;;25.90;48.30;;;;;;5049217;28;20890;-47
2022/10/10 11:00:31;;;;;;;4.43;2.40;;;25.90;48.40;;;;;;5049458;28;20495;-47
2022/10/10 11:03:43;;;;;;;3.90;3.37;;;26.10;47.80;;;;;;5051971;28;20446;-49
2022/10/10 11:06:37;;;;;;;3.80;2.57;;;26.30;47.60;;;;;;5026567;28;20501;-48
2022/10/10 11:09:03;;;;;;;2.90;2.60;;;26.40;46.60;;;;;;5042219;28;20983;-49
2022/10/10 11:11:43;;;;;;;5.30;2.70;;;26.40;46.60;;;;;;5049511;28;20431;-49
2022/10/10 11:14:24;;;;;;;5.43;2.77;;;26.30;46.40;;;;;;5058187;28;20254;-50
2022/10/10 11:16:59;;;;;;;4.00;2.70;;;26.10;47.40;;;;;;5050355;28;20458;-47
2022/10/10 11:19:33;;;;;;;4.50;2.40;;;26.10;47.70;;;;;;5052097;28;20599;-48
2022/10/10 11:22:01;;;;;;;5.13;2.93;;;26.00;47.60;;;;;;5044335;28;20455;-49
2022/10/10 11:24:40;;;;;;;3.90;2.80;;;26.00;48.00;;;;;;5046801;28;20534;-48
2022/10/10 11:27:31;;;;;;;5.67;2.50;;;26.10;48.00;;;;;;5050602;28;20498;-47
2022/10/10 11:30:09;;;;;;;6.10;2.83;;;26.10;47.80;;;;;;5048505;28;20821;-47
2022/10/10 11:32:49;;;;;;;5.50;3.00;;;25.90;48.20;;;;;;5047813;28;20589;-49
2022/10/10 11:35:32;;;;;;;7.10;3.27;;;26.00;47.80;;;;;;5049963;28;20976;-47
2022/10/10 11:38:23;;;;;;;4.80;2.93;;;26.20;48.00;;;;;;5043693;28;20447;-48
2022/10/10 11:40:54;;;;;;;4.50;2.23;;;26.40;47.60;;;;;;5004182;28;20451;-52
2022/10/10 11:43:31;;;;;;;6.67;2.80;;;26.50;47.00;;;;;;5046564;28;20844;-52
2022/10/10 11:46:12;;;;;;;5.93;3.20;;;26.50;46.70;;;;;;5052958;28;20479;-49
2022/10/10 11:48:53;;;;;;;3.17;2.87;;;26.60;47.10;;;;;;5050448;28;20450;-51
2022/10/10 11:51:43;;;;;;;4.97;3.27;;;26.70;47.00;;;;;;5048951;28;20582;-50
2022/10/10 11:54:33;;;;;;;4.33;3.23;;;26.80;46.20;;;;;;5050685;28;20447;-51
2022/10/10 11:57:04;;;;;;;4.43;3.07;;;26.80;46.10;;;;;;5051469;28;20811;-50
2022/10/10 11:59:38;;;;;;;6.80;3.27;;;26.90;45.90;;;;;;5051594;28;20742;-49
2022/10/10 12:02:21;;;;;;;4.30;2.60;;;27.00;45.50;;;;;;5051996;28;20473;-50
2022/10/10 12:04:46;;;;;;;3.73;2.60;;;27.10;45.50;;;;;;5046933;28;20515;-48
2022/10/10 12:07:35;;;;;;;4.57;2.70;;;27.00;44.60;;;;;;5047758;28;20585;-51
2022/10/10 12:10:36;;;;;;;7.60;3.07;;;27.00;45.30;;;;;;5047378;28;20211;-50
2022/10/10 12:13:26;;;;;;;4.67;3.20;;;27.10;45.20;;;;;;5040539;28;20807;-49
2022/10/10 12:15:55;;;;;;;10.40;3.00;;;27.20;44.60;;;;;;5041792;28;20824;-49
2022/10/10 12:18:38;;;;;;;7.20;3.30;;;27.40;44.60;;;;;;5043110;28;21828;-49
2022/10/10 12:21:24;;;;;;;7.80;3.50;;;27.50;43.40;;;;;;5041084;28;20563;-50
2022/10/10 12:24:03;;;;;;;4.70;3.17;;;27.60;43.10;;;;;;5040824;28;20447;-49
2022/10/10 12:27:09;;;;;;;5.00;2.70;;;27.60;43.20;;;;;;5046148;28;20494;-53
2022/10/10 12:29:44;;;;;;;6.20;3.60;;;27.60;43.80;;;;;;4968442;28;20861;-52
2022/10/10 12:32:13;;;;;;;6.53;3.77;;;27.60;44.00;;;;;;4963769;28;20467;-49
2022/10/10 12:34:46;;;;;;;3.70;2.80;;;27.40;44.70;;;;;;5008394;28;20459;-48
2022/10/10 12:37:28;;;;;;;5.00;2.80;;;27.50;45.20;;;;;;5046656;28;20450;-48
2022/10/10 12:40:05;;;;;;;8.70;3.73;;;27.60;43.70;;;;;;5038058;28;20934;-48
2022/10/10 12:42:32;;;;;;;4.80;3.60;;;27.90;43.90;;;;;;5045627;28;20443;-53
2022/10/10 12:44:58;;;;;;;5.33;2.90;;;28.00;42.70;;;;;;5048062;28;20581;-50
2022/10/10 12:47:33;;;;;;;9.30;3.63;;;28.10;42.50;;;;;;5051149;28;20581;-48
2022/10/10 12:50:05;;;;;;;10.80;3.20;;;27.90;42.40;;;;;;5049447;28;20448;-48
2022/10/10 12:52:45;;;;;;;7.03;3.10;;;27.90;42.30;;;;;;5049672;28;20432;-49
2022/10/10 12:55:24;;;;;;;4.40;3.17;;;28.20;42.20;;;;;;5041206;28;20477;-49
2022/10/10 12:57:53;;;;;;;5.00;3.00;;;28.40;41.70;;;;;;5050880;28;20450;-48
2022/10/10 13:00:21;;;;;;;6.97;3.00;;;28.50;41.90;;;;;;5051369;28;20530;-48
2022/10/10 13:02:51;;;;;;;5.33;3.10;;;28.40;41.70;;;;;;5048565;28;20446;-49
2022/10/10 13:05:27;;;;;;;6.43;3.20;;;28.50;42.40;;;;;;5049199;28;20504;-49
2022/10/10 13:07:57;;;;;;;7.33;2.87;;;28.50;41.60;;;;;;5038871;28;20442;-48